Time;durP1;ratioP1;P1;durP2;ratioP2;P2;SDS_P1;SDS_P2;PMS_P1;PMS_P2;Temp;Humidity;BMP_temperature;BMP_pressure;BME280_temperature;BME280_humidity;BME280_pressure;Samples;Min_cycle;Max_cycle;Signal;HPM_P1;HPM_P2
2023/12/01 00:02:20;;;;;;;;;45.00;37.50;;;;;6.66;76.04;99459.38;5101067;27;45249;-86
2023/12/01 00:04:45;;;;;;;;;41.75;38.50;;;;;6.61;75.70;99450.84;5101843;27;45358;-85
2023/12/01 00:07:10;;;;;;;;;51.50;43.00;;;;;6.60;75.51;99451.78;5100843;27;45405;-86
2023/12/01 00:09:36;;;;;;;;;44.25;40.50;;;;;6.70;75.38;99458.25;5100089;27;60570;-83
2023/12/01 00:12:02;;;;;;;;;47.25;42.00;;;;;6.60;75.26;99446.50;5100060;27;45321;-85
2023/12/01 00:14:27;;;;;;;;;47.00;39.00;;;;;6.60;75.48;99463.19;5087574;27;45303;-84
2023/12/01 00:16:53;;;;;;;;;53.75;39.00;;;;;6.63;75.88;99457.72;5100780;27;45233;-84
2023/12/01 00:19:18;;;;;;;;;48.00;40.00;;;;;6.66;75.13;99462.00;5084017;27;47720;-84
2023/12/01 00:21:43;;;;;;;;;47.25;37.75;;;;;6.63;75.50;99463.00;5103706;27;45260;-81
2023/12/01 00:24:09;;;;;;;;;42.25;37.75;;;;;6.53;75.68;99455.72;5101689;27;45386;-81
2023/12/01 00:26:34;;;;;;;;;41.75;38.50;;;;;6.45;75.45;99454.38;5100496;27;45555;-82
2023/12/01 00:29:00;;;;;;;;;51.25;41.00;;;;;6.54;75.22;99458.28;5098784;27;46180;-82
2023/12/01 00:31:25;;;;;;;;;46.25;36.75;;;;;6.57;75.66;99454.59;5100132;27;45321;-82
2023/12/01 00:33:51;;;;;;;;;45.00;38.75;;;;;6.40;74.90;99439.75;5099319;27;45480;-82
2023/12/01 00:36:16;;;;;;;;;42.75;38.50;;;;;6.46;75.24;99453.44;5080955;27;45566;-82
2023/12/01 00:38:42;;;;;;;;;35.50;26.50;;;;;6.52;75.27;99468.09;5098888;27;45487;-81
2023/12/01 00:41:07;;;;;;;;;41.25;31.25;;;;;6.53;75.76;99461.00;5100183;27;45468;-82
2023/12/01 00:43:32;;;;;;;;;55.25;41.75;;;;;6.44;76.06;99454.47;5100646;27;45447;-82
2023/12/01 00:45:58;;;;;;;;;43.25;35.75;;;;;6.51;75.39;99469.03;5099512;27;45503;-82
2023/12/01 00:48:24;;;;;;;;;44.25;36.50;;;;;6.39;75.00;99457.38;5099952;27;54743;-87
2023/12/01 00:50:49;;;;;;;;;36.50;29.50;;;;;6.39;75.08;99454.72;5101656;27;45243;-84
2023/12/01 00:53:14;;;;;;;;;37.75;35.75;;;;;6.53;75.07;99474.22;5103082;27;45441;-87
2023/12/01 00:55:40;;;;;;;;;39.50;32.50;;;;;6.56;74.78;99472.25;5099907;27;45648;-86
2023/12/01 00:58:05;;;;;;;;;41.50;33.50;;;;;6.62;75.05;99471.03;5101737;27;45372;-85
2023/12/01 01:00:31;;;;;;;;;42.25;37.75;;;;;6.65;75.13;99476.16;5102691;27;45231;-82
2023/12/01 01:02:56;;;;;;;;;48.25;39.50;;;;;6.65;74.88;99476.16;5102205;27;45254;-87
2023/12/01 01:05:22;;;;;;;;;57.75;41.50;;;;;6.56;74.89;99455.56;5102709;27;45627;-85
2023/12/01 01:07:47;;;;;;;;;48.75;39.25;;;;;6.58;74.80;99458.94;5102423;27;46309;-84
2023/12/01 01:10:13;;;;;;;;;54.00;41.50;;;;;6.62;74.95;99468.38;5102560;27;45148;-87
2023/12/01 01:12:38;;;;;;;;;42.25;39.50;;;;;6.56;75.22;99458.19;5102313;27;45355;-89
2023/12/01 01:15:04;;;;;;;;;42.00;34.50;;;;;6.58;74.85;99470.38;5101876;27;45307;-87
2023/12/01 01:17:31;;;;;;;;;54.75;40.75;;;;;6.52;75.20;99478.66;5100905;27;46464;-82
2023/12/01 01:19:58;;;;;;;;;43.00;37.25;;;;;6.57;74.79;99467.81;5102609;27;45309;-84
2023/12/01 01:22:24;;;;;;;;;46.25;38.00;;;;;6.53;74.85;99467.16;5101949;27;45736;-84
2023/12/01 01:24:49;;;;;;;;;44.25;38.00;;;;;6.52;74.30;99464.59;5100512;27;45499;-84
2023/12/01 01:27:15;;;;;;;;;41.00;38.00;;;;;6.50;74.88;99470.78;5103520;27;45326;-87
2023/12/01 01:29:40;;;;;;;;;47.50;38.50;;;;;6.43;74.62;99472.09;5103062;27;45386;-86
2023/12/01 01:32:05;;;;;;;;;27.50;27.50;;;;;6.38;74.37;99478.56;5101430;27;45619;-80
2023/12/01 01:34:31;;;;;;;;;43.50;37.00;;;;;6.37;75.32;99484.78;5098890;27;45374;-84
2023/12/01 01:36:56;;;;;;;;;36.25;32.25;;;;;6.34;74.83;99477.88;5098687;27;59194;-84
2023/12/01 01:39:22;;;;;;;;;50.00;39.50;;;;;6.44;74.95;99489.63;5099737;27;48217;-85
2023/12/01 01:41:47;;;;;;;;;46.75;40.00;;;;;6.41;74.78;99468.69;5100881;27;45359;-86
2023/12/01 01:44:12;;;;;;;;;34.00;30.75;;;;;6.50;74.54;99483.16;5099392;27;45271;-84
2023/12/01 01:46:38;;;;;;;;;38.00;29.75;;;;;6.39;74.64;99467.09;5090976;27;47017;-86
2023/12/01 01:49:05;;;;;;;;;46.00;33.50;;;;;6.44;75.07;99479.06;5098173;27;45471;-83
2023/12/01 01:51:33;;;;;;;;;33.75;32.25;;;;;6.38;74.86;99484.72;5099342;27;45432;-83
2023/12/01 01:53:58;;;;;;;;;43.25;34.75;;;;;6.42;75.08;99482.75;5101427;27;45522;-86
2023/12/01 01:56:26;;;;;;;;;39.25;36.75;;;;;6.37;75.70;99480.34;5101035;27;45592;-84
2023/12/01 01:58:51;;;;;;;;;51.25;38.00;;;;;6.40;75.35;99480.19;5080596;28;45258;-86
2023/12/01 02:01:16;;;;;;;;;49.00;37.00;;;;;6.43;74.61;99477.38;5081257;28;45358;-84
2023/12/01 02:03:42;;;;;;;;;37.75;33.25;;;;;6.40;74.26;99477.56;5081565;27;45549;-80
2023/12/01 02:06:08;;;;;;;;;43.25;37.25;;;;;6.35;74.77;99474.31;5099123;27;45493;-84
2023/12/01 02:08:33;;;;;;;;;45.00;39.25;;;;;6.31;75.17;99475.44;5095313;27;45342;-87
2023/12/01 02:10:59;;;;;;;;;44.00;37.25;;;;;6.28;74.80;99467.69;5100335;27;45295;-86
2023/12/01 02:13:25;;;;;;;;;38.50;36.00;;;;;6.44;75.17;99497.56;5098670;27;45369;-80
2023/12/01 02:15:53;;;;;;;;;38.50;35.75;;;;;6.36;75.51;99491.84;5098661;27;45993;-84
2023/12/01 02:18:26;;;;;;;;;51.75;41.75;;;;;6.38;75.30;99499.69;5095002;27;45555;-84
2023/12/01 02:20:54;;;;;;;;;53.50;41.50;;;;;6.34;76.25;99496.38;5096962;27;45440;-83
2023/12/01 02:23:20;;;;;;;;;48.00;35.25;;;;;6.42;76.12;99502.09;5098023;27;45604;-84
2023/12/01 02:25:45;;;;;;;;;51.75;38.50;;;;;6.35;75.27;99492.78;5098210;27;45349;-83
2023/12/01 02:28:11;;;;;;;;;55.00;39.25;;;;;6.34;75.57;99501.66;5097835;27;45257;-84
2023/12/01 02:30:37;;;;;;;;;37.00;34.50;;;;;6.28;75.87;99495.88;5099010;27;45331;-87
2023/12/01 02:33:02;;;;;;;;;37.00;35.50;;;;;6.37;75.22;99503.25;5098732;27;45227;-83
2023/12/01 02:35:31;;;;;;;;;43.25;35.50;;;;;6.38;74.68;99505.84;5098830;27;46583;-83
2023/12/01 02:37:57;;;;;;;;;55.50;43.00;;;;;6.32;74.03;99500.03;5101763;27;45493;-82
2023/12/01 02:40:23;;;;;;;;;41.50;38.00;;;;;6.33;73.58;99507.88;5101994;27;45375;-80
2023/12/01 02:42:50;;;;;;;;;42.50;35.50;;;;;6.20;73.49;99506.84;5104344;27;45590;-84
2023/12/01 02:45:20;;;;;;;;;39.50;33.25;;;;;6.10;73.63;99495.94;5103605;27;46227;-87
2023/12/01 02:47:47;;;;;;;;;48.50;35.75;;;;;6.11;73.43;99497.66;5105430;27;45526;-86
2023/12/01 02:50:13;;;;;;;;;33.25;30.00;;;;;6.16;72.88;99507.97;5105926;27;45385;-89
2023/12/01 02:52:41;;;;;;;;;53.75;41.25;;;;;6.21;73.80;99508.56;5105814;27;45259;-86
2023/12/01 02:55:07;;;;;;;;;49.25;40.00;;;;;6.22;72.54;99507.63;5104715;27;45374;-87
2023/12/01 02:57:34;;;;;;;;;38.75;34.00;;;;;6.20;73.37;99506.84;5102696;27;45563;-90
2023/12/01 02:59:59;;;;;;;;;45.25;39.00;;;;;6.13;72.98;99509.00;5103176;27;45513;-89
2023/12/01 03:02:28;;;;;;;;;45.75;39.00;;;;;6.06;73.16;99504.13;5105563;27;45504;-87
2023/12/01 03:04:53;;;;;;;;;46.00;41.50;;;;;5.92;73.43;99486.41;5099706;27;47329;-80
2023/12/01 03:07:19;;;;;;;;;42.00;38.25;;;;;6.02;73.89;99507.88;5109898;27;44739;-83
2023/12/01 03:09:44;;;;;;;;;42.00;36.75;;;;;5.99;74.17;99513.28;5106930;27;63564;-88
2023/12/01 03:12:09;;;;;;;;;47.25;39.25;;;;;5.99;74.16;99506.25;5104346;27;45334;-87
2023/12/01 03:14:35;;;;;;;;;56.50;43.50;;;;;5.98;74.06;99512.44;5101967;27;56923;-83
2023/12/01 03:17:00;;;;;;;;;43.75;34.25;;;;;5.99;74.30;99505.38;5101878;27;48220;-85
2023/12/01 03:19:25;;;;;;;;;45.75;38.25;;;;;6.10;74.50;99516.22;5099882;27;45412;-83
2023/12/01 03:21:50;;;;;;;;;43.25;37.00;;;;;6.01;73.98;99522.84;5102248;27;45520;-80
2023/12/01 03:24:16;;;;;;;;;58.00;44.00;;;;;5.97;74.68;99520.44;5102176;27;57005;-82
2023/12/01 03:26:41;;;;;;;;;46.75;39.50;;;;;5.94;74.92;99515.34;5102822;27;54006;-83
2023/12/01 03:29:08;;;;;;;;;49.25;39.00;;;;;5.83;74.30;99507.97;5109419;27;45314;-80
2023/12/01 03:31:33;;;;;;;;;48.50;39.75;;;;;5.78;75.06;99512.66;5104023;27;45366;-87
2023/12/01 03:33:59;;;;;;;;;50.75;39.50;;;;;5.79;75.27;99517.84;5085033;27;60516;-87
2023/12/01 03:36:25;;;;;;;;;54.50;39.00;;;;;5.75;75.30;99521.59;5102257;27;45498;-88
2023/12/01 03:38:50;;;;;;;;;53.50;40.25;;;;;5.73;75.57;99518.19;5103260;27;45337;-90
2023/12/01 03:41:15;;;;;;;;;43.75;34.25;;;;;5.75;75.41;99521.59;5101650;27;45322;-80
2023/12/01 03:43:41;;;;;;;;;43.50;30.50;;;;;5.71;74.66;99517.38;5098836;27;45930;-80
2023/12/01 03:46:06;;;;;;;;;57.50;40.50;;;;;5.70;74.81;99520.97;5080613;27;63079;-81
2023/12/01 03:48:33;;;;;;;;;53.50;41.75;;;;;5.72;74.99;99521.72;5099352;27;45310;-79
2023/12/01 03:50:59;;;;;;;;;43.75;37.25;;;;;5.72;74.55;99515.59;5102646;27;45479;-83
2023/12/01 03:53:24;;;;;;;;;29.00;26.00;;;;;5.73;74.81;99527.84;5103794;27;47490;-87
2023/12/01 03:55:50;;;;;;;;;45.50;38.00;;;;;5.66;75.21;99531.78;5103848;27;53759;-85
2023/12/01 03:58:16;;;;;;;;;51.25;34.75;;;;;5.59;74.00;99529.44;5102483;27;45275;-82
2023/12/01 04:00:41;;;;;;;;;43.75;36.75;;;;;5.65;74.33;99551.16;5106056;27;45498;-83
2023/12/01 04:03:06;;;;;;;;;50.75;39.75;;;;;5.61;74.75;99556.63;5102142;27;45349;-82
2023/12/01 04:05:32;;;;;;;;;45.75;36.50;;;;;5.63;74.95;99554.75;5098954;27;45218;-81
2023/12/01 04:07:57;;;;;;;;;48.75;39.50;;;;;5.52;74.52;99540.41;5098601;27;45297;-84
2023/12/01 04:10:23;;;;;;;;;40.00;32.25;;;;;5.65;74.26;99559.94;5099165;27;48591;-82
2023/12/01 04:12:48;;;;;;;;;47.50;41.75;;;;;5.66;74.17;99558.16;5099211;27;45359;-81
2023/12/01 04:15:18;;;;;;;;;45.50;36.75;;;;;5.62;74.15;99558.31;5099448;27;45486;-86
2023/12/01 04:17:45;;;;;;;;;40.50;32.75;;;;;5.50;74.93;99537.84;5099928;27;45378;-85
2023/12/01 04:20:22;;;;;;;;;49.50;39.50;;;;;5.50;74.67;99537.84;5100370;27;45515;-81
2023/12/01 04:22:52;;;;;;;;;53.00;39.50;;;;;5.58;74.14;99563.81;5099275;27;45366;-85
2023/12/01 04:25:19;;;;;;;;;57.00;42.50;;;;;5.54;73.94;99559.63;5100804;27;45279;-80
2023/12/01 04:27:46;;;;;;;;;46.50;37.25;;;;;5.51;74.02;99562.44;5102390;27;45265;-88
2023/12/01 04:30:14;;;;;;;;;51.50;42.50;;;;;5.45;74.57;99547.75;5102234;27;45324;-86
2023/12/01 04:33:00;;;;;;;;;52.50;41.75;;;;;5.52;74.20;99569.41;5102064;27;46043;-86
2023/12/01 04:35:28;;;;;;;;;33.25;32.00;;;;;5.52;73.78;99570.25;5100494;27;45248;-88
2023/12/01 04:37:55;;;;;;;;;52.00;44.25;;;;;5.42;74.22;99555.00;5099599;27;45406;-88
2023/12/01 04:40:21;;;;;;;;;52.00;39.25;;;;;5.46;74.27;99567.06;5101013;27;45192;-90
2023/12/01 04:42:47;;;;;;;;;43.50;32.00;;;;;5.49;74.49;99572.22;5101453;27;46292;-79
2023/12/01 04:45:14;;;;;;;;;49.75;41.75;;;;;5.53;74.53;99571.13;5099206;27;45492;-84
2023/12/01 04:47:40;;;;;;;;;46.25;41.00;;;;;5.54;73.80;99568.41;5100790;27;45341;-84
2023/12/01 04:50:12;;;;;;;;;49.75;40.25;;;;;5.59;73.41;99565.50;5104070;27;45373;-85
2023/12/01 04:52:45;;;;;;;;;60.75;45.50;;;;;5.54;73.68;99568.41;5104154;27;45477;-82
2023/12/01 04:55:13;;;;;;;;;52.25;43.00;;;;;5.45;74.17;99570.66;5100814;27;45240;-86
2023/12/01 04:57:39;;;;;;;;;52.25;40.00;;;;;5.39;74.31;99566.56;5099253;27;45281;-86
2023/12/01 05:00:21;;;;;;;;;53.50;43.25;;;;;5.39;74.53;99560.44;5100059;27;45301;-88
2023/12/01 05:02:51;;;;;;;;;60.00;44.75;;;;;5.46;73.71;99561.81;5100108;27;46155;-85
2023/12/01 05:05:17;;;;;;;;;55.00;42.25;;;;;5.51;74.07;99562.44;5098150;27;45351;-82
2023/12/01 05:07:43;;;;;;;;;58.75;45.75;;;;;5.43;74.26;99556.69;5098463;27;45502;-80
2023/12/01 05:10:14;;;;;;;;;51.50;42.00;;;;;5.51;73.51;99549.25;5098612;27;45537;-84
2023/12/01 05:12:41;;;;;;;;;55.75;40.25;;;;;5.57;72.70;99560.31;5099400;27;46149;-81
2023/12/01 05:15:15;;;;;;;;;48.50;41.75;;;;;5.65;73.45;99562.56;5099664;27;45489;-82
2023/12/01 05:17:42;;;;;;;;;47.00;36.50;;;;;5.69;73.76;99581.72;5099377;27;45412;-81
2023/12/01 05:20:15;;;;;;;;;43.25;34.25;;;;;5.72;73.51;99577.13;5100966;27;45329;-83
2023/12/01 05:22:47;;;;;;;;;53.00;43.25;;;;;5.80;73.25;99582.88;5099048;27;45325;-81
2023/12/01 05:25:14;;;;;;;;;59.75;44.25;;;;;5.78;72.97;99578.63;5080970;27;45324;-83
2023/12/01 05:27:41;;;;;;;;;57.75;41.25;;;;;5.81;72.33;99579.28;5097522;27;45498;-82
2023/12/01 05:30:07;;;;;;;;;55.50;44.00;;;;;5.83;71.89;99577.41;5100063;27;45464;-84
2023/12/01 05:32:33;;;;;;;;;48.25;41.75;;;;;5.76;72.12;99583.13;5099472;27;45658;-86
2023/12/01 05:34:59;;;;;;;;;51.75;45.25;;;;;5.67;72.16;99578.31;5103385;27;45318;-82
2023/12/01 05:37:24;;;;;;;;;58.75;42.75;;;;;5.62;73.31;99583.84;5100111;27;45365;-80
2023/12/01 05:39:49;;;;;;;;;55.25;39.75;;;;;5.60;72.91;99588.34;5103134;27;45302;-82
2023/12/01 05:42:15;;;;;;;;;57.25;44.00;;;;;5.61;72.81;99593.53;5104089;27;45401;-84
2023/12/01 05:44:41;;;;;;;;;56.25;40.25;;;;;5.64;72.11;99597.78;5101754;27;45382;-80
2023/12/01 05:47:06;;;;;;;;;59.75;42.75;;;;;5.64;72.36;99592.53;5098269;27;45531;-85
2023/12/01 05:49:32;;;;;;;;;57.75;38.00;;;;;5.65;72.02;99585.47;5099120;27;45585;-84
2023/12/01 05:51:57;;;;;;;;;52.25;42.50;;;;;5.63;71.70;99581.13;5100614;27;45273;-80
2023/12/01 05:54:22;;;;;;;;;55.75;42.25;;;;;5.56;71.78;99581.50;5093319;27;45302;-80
2023/12/01 05:56:48;;;;;;;;;48.25;40.50;;;;;5.51;72.16;99586.16;5098522;27;52028;-85
2023/12/01 05:59:13;;;;;;;;;60.25;43.00;;;;;5.42;72.17;99579.56;5098652;27;46541;-82
2023/12/01 06:01:38;;;;;;;;;43.50;37.50;;;;;5.36;72.75;99582.53;5099224;27;49137;-86
2023/12/01 06:04:03;;;;;;;;;52.25;42.75;;;;;5.41;72.57;99590.19;5102165;27;45477;-84
2023/12/01 06:06:29;;;;;;;;;56.25;33.00;;;;;5.40;72.88;99585.88;5102821;27;45275;-86
2023/12/01 06:08:54;;;;;;;;;51.75;41.50;;;;;5.35;73.07;99579.97;5084737;27;45226;-87
2023/12/01 06:11:22;;;;;;;;;56.50;42.75;;;;;5.41;73.06;99595.47;5104060;27;54519;-88
2023/12/01 06:13:48;;;;;;;;;56.50;44.00;;;;;5.41;72.30;99595.47;5104595;27;45314;-85
2023/12/01 06:16:13;;;;;;;;;54.00;42.00;;;;;5.33;73.10;99591.44;5106045;27;45325;-88
2023/12/01 06:18:39;;;;;;;;;58.25;41.25;;;;;5.44;72.62;99605.88;5103683;27;45464;-84
2023/12/01 06:21:05;;;;;;;;;65.00;45.75;;;;;5.45;72.25;99597.00;5102804;27;45498;-88
2023/12/01 06:23:32;;;;;;;;;57.00;42.00;;;;;5.41;72.59;99609.50;5105885;27;45328;-89
2023/12/01 06:25:57;;;;;;;;;42.25;36.25;;;;;5.40;72.32;99614.88;5103743;27;44764;-86
2023/12/01 06:28:23;;;;;;;;;60.75;46.25;;;;;5.37;72.49;99600.06;5115447;27;45220;-89
2023/12/01 06:30:58;;;;;;;;;59.25;46.25;;;;;5.40;72.54;99614.88;5111618;27;46213;-89
2023/12/01 06:33:29;;;;;;;;;49.25;41.50;;;;;5.36;73.45;99613.31;5095423;27;45410;-91
2023/12/01 06:36:04;;;;;;;;;41.75;38.75;;;;;5.38;72.77;99606.19;5097904;27;44792;-88
2023/12/01 06:38:29;;;;;;;;;59.00;46.00;;;;;5.42;73.15;99618.28;5126999;27;45438;-89
2023/12/01 06:40:59;;;;;;;;;56.50;42.75;;;;;5.19;72.64;99575.47;5124518;27;47153;-87
2023/12/01 06:43:31;;;;;;;;;52.00;42.50;;;;;5.07;72.49;99557.63;5120662;27;45357;-89
2023/12/01 06:46:00;;;;;;;;;59.75;45.50;;;;;5.05;72.59;99567.38;5120090;27;45137;-86
2023/12/01 06:48:30;;;;;;;;;50.50;43.50;;;;;5.40;72.75;99620.13;5116985;27;45303;-92
2023/12/01 06:50:57;;;;;;;;;66.75;45.75;;;;;5.02;72.63;99567.56;5118525;27;46685;-88
2023/12/01 06:53:30;;;;;;;;;59.75;43.50;;;;;5.26;72.49;99605.88;5117664;27;45318;-91
2023/12/01 06:55:58;;;;;;;;;57.25;45.00;;;;;5.03;72.01;99569.25;5121005;27;44618;-91
2023/12/01 06:58:32;;;;;;;;;58.25;47.00;;;;;5.15;72.33;99581.81;5126560;27;44896;-89
2023/12/01 07:00:57;;;;;;;;;47.75;39.75;;;;;5.42;72.75;99624.41;5124687;27;45569;-93
2023/12/01 07:03:23;;;;;;;;;51.00;41.00;;;;;5.01;73.26;99566.69;5108637;27;44813;-80
2023/12/01 07:05:51;;;;;;;;;58.50;42.25;;;;;5.12;73.88;99584.63;5111430;27;45220;-88
2023/12/01 07:08:21;;;;;;;;;64.75;47.50;;;;;5.04;72.17;99561.28;5121457;27;44854;-82
2023/12/01 07:10:47;;;;;;;;;39.75;39.00;;;;;5.22;72.74;99590.28;5097789;27;46241;-86
2023/12/01 07:13:13;;;;;;;;;61.75;42.75;;;;;5.13;72.89;99583.69;5101872;27;45234;-87
2023/12/01 07:15:38;;;;;;;;;52.75;43.25;;;;;5.44;72.28;99633.09;5106029;27;45564;-84
2023/12/01 07:18:09;;;;;;;;;57.25;45.25;;;;;5.16;73.13;99596.69;5103290;27;45530;-81
2023/12/01 07:20:35;;;;;;;;;58.50;45.50;;;;;5.39;73.02;99642.16;5071563;27;45448;-82
2023/12/01 07:23:18;;;;;;;;;50.75;39.25;;;;;4.99;72.97;99580.88;5086226;27;45888;-93
2023/12/01 07:25:47;;;;;;;;;44.25;36.75;;;;;5.08;72.88;99593.63;5093668;27;45438;-80
2023/12/01 07:28:14;;;;;;;;;55.50;43.75;;;;;5.17;73.20;99602.81;5110095;27;45189;-80
2023/12/01 07:30:41;;;;;;;;;54.50;46.25;;;;;5.08;71.73;99587.47;5106431;27;46118;-84
2023/12/01 07:33:10;;;;;;;;;50.50;42.25;;;;;5.15;72.14;99610.81;5086555;27;45537;-84
2023/12/01 07:35:35;;;;;;;;;49.75;40.00;;;;;5.09;72.71;99600.59;5085242;27;45302;-82
2023/12/01 07:38:04;;;;;;;;;46.50;41.75;;;;;4.96;72.24;99588.94;5102679;27;45573;-84
2023/12/01 07:40:31;;;;;;;;;49.50;42.25;;;;;5.27;72.72;99646.25;5100699;27;46908;-81
2023/12/01 07:43:00;;;;;;;;;49.25;39.50;;;;;5.01;72.42;99581.66;5101648;27;45378;-81
2023/12/01 07:45:26;;;;;;;;;60.75;45.75;;;;;5.31;73.12;99635.47;5103592;27;45201;-83
2023/12/01 07:47:53;;;;;;;;;46.00;36.25;;;;;5.19;72.93;99620.25;5108266;27;45521;-82
2023/12/01 07:50:19;;;;;;;;;64.25;44.00;;;;;5.06;73.01;99603.34;5111145;27;45432;-86
2023/12/01 07:52:52;;;;;;;;;54.00;43.00;;;;;4.88;72.41;99575.28;5107993;27;45238;-89
2023/12/01 07:55:21;;;;;;;;;55.00;42.25;;;;;5.33;72.46;99644.16;5107132;27;45408;-86
2023/12/01 07:57:46;;;;;;;;;55.50;43.00;;;;;4.97;72.45;99569.56;5090059;27;45392;-89
2023/12/01 08:00:16;;;;;;;;;68.50;52.00;;;;;5.35;72.06;99632.72;5105905;27;45672;-88
2023/12/01 08:02:45;;;;;;;;;46.50;40.75;;;;;5.07;71.39;99599.78;5104632;27;45243;-92
2023/12/01 08:05:13;;;;;;;;;62.25;45.50;;;;;5.35;72.12;99643.25;5087323;27;44764;-89
2023/12/01 08:07:51;;;;;;;;;55.25;42.00;;;;;5.50;70.91;99653.03;5087171;27;45706;-90
2023/12/01 08:10:17;;;;;;;;;56.00;47.00;;;;;5.24;71.13;99615.63;5091117;27;45735;-89
2023/12/01 08:12:44;;;;;;;;;52.50;42.00;;;;;5.48;70.34;99660.19;5107575;27;45239;-86
2023/12/01 08:15:10;;;;;;;;;61.00;47.00;;;;;5.52;70.78;99648.53;5107992;27;45412;-84
2023/12/01 08:17:36;;;;;;;;;61.50;45.00;;;;;5.64;70.11;99655.81;5105398;27;45492;-85
2023/12/01 08:20:03;;;;;;;;;56.25;43.00;;;;;5.53;70.82;99643.19;5103509;27;45500;-86
2023/12/01 08:22:29;;;;;;;;;47.75;39.50;;;;;5.49;70.52;99640.78;5108051;27;45251;-83
2023/12/01 08:24:54;;;;;;;;;58.25;45.25;;;;;5.66;70.38;99658.38;5111923;27;45335;-83
2023/12/01 08:27:21;;;;;;;;;61.25;44.75;;;;;5.66;69.98;99656.59;5092099;27;45243;-89
2023/12/01 08:29:46;;;;;;;;;58.25;46.00;;;;;5.81;70.52;99669.00;5093224;27;50850;-86
2023/12/01 08:32:12;;;;;;;;;55.75;44.50;;;;;5.83;69.67;99661.84;5088026;27;62210;-86
2023/12/01 08:34:38;;;;;;;;;56.75;43.50;;;;;5.93;70.10;99667.56;5108511;27;45247;-82
2023/12/01 08:37:04;;;;;;;;;55.25;43.00;;;;;5.99;68.95;99667.25;5111459;27;44817;-85
2023/12/01 08:39:30;;;;;;;;;59.25;41.00;;;;;5.98;69.53;99654.09;5117249;27;45217;-88
2023/12/01 08:41:56;;;;;;;;;61.25;43.00;;;;;5.93;68.96;99661.44;5117046;27;45486;-85
2023/12/01 08:44:22;;;;;;;;;54.25;43.75;;;;;5.96;68.87;99655.97;5117120;27;44786;-89
2023/12/01 08:46:52;;;;;;;;;60.50;41.50;;;;;5.83;68.57;99655.72;5099904;27;45100;-80
2023/12/01 08:49:18;;;;;;;;;52.25;42.50;;;;;5.80;68.88;99664.66;5087857;27;45265;-83
2023/12/01 08:51:44;;;;;;;;;53.50;42.00;;;;;5.70;69.13;99670.47;5101092;27;45273;-81
2023/12/01 08:54:09;;;;;;;;;62.75;49.75;;;;;5.56;68.84;99657.97;5104838;27;45223;-87
2023/12/01 08:56:35;;;;;;;;;55.00;46.00;;;;;5.59;69.74;99660.47;5106208;27;45207;-83
2023/12/01 08:59:00;;;;;;;;;52.25;43.75;;;;;5.62;69.86;99665.59;5105448;27;59313;-85
2023/12/01 09:01:26;;;;;;;;;55.25;43.25;;;;;5.58;68.90;99671.94;5108404;27;45346;-78
2023/12/01 09:03:52;;;;;;;;;47.75;39.00;;;;;5.67;69.55;99668.00;5107098;27;45439;-82
2023/12/01 09:06:17;;;;;;;;;62.25;43.75;;;;;5.62;68.66;99668.25;5088881;27;45421;-81
2023/12/01 09:08:42;;;;;;;;;58.50;42.25;;;;;5.56;68.44;99666.75;5101622;27;59237;-79
2023/12/01 09:11:08;;;;;;;;;48.00;43.00;;;;;5.52;68.14;99662.56;5104871;27;45306;-86
2023/12/01 09:14:17;;;;;;;;;53.50;39.75;;;;;5.55;68.69;99678.22;5117373;27;44733;-81
2023/12/01 09:17:00;;;;;;;;;52.75;42.00;;;;;5.53;68.77;99669.53;5117929;27;45294;-85
2023/12/01 09:19:37;;;;;;;;;63.25;43.00;;;;;5.63;69.36;99670.81;5086308;27;47111;-80
2023/12/01 09:22:26;;;;;;;;;54.75;42.50;;;;;5.68;69.19;99670.56;5057592;28;45289;-81
2023/12/01 09:24:51;;;;;;;;;46.50;40.25;;;;;5.72;68.63;99685.28;5061987;28;45394;-86
2023/12/01 09:27:17;;;;;;;;;57.00;42.75;;;;;5.67;67.81;99687.31;5046473;28;45370;-82
2023/12/01 09:29:42;;;;;;;;;65.25;44.25;;;;;5.61;68.75;99704.31;5066708;28;46844;-89
2023/12/01 09:32:08;;;;;;;;;75.50;53.75;;;;;5.55;68.47;99698.47;5066656;28;45544;-88
2023/12/01 09:34:36;;;;;;;;;59.50;47.00;;;;;5.52;68.92;99686.31;5069498;28;45484;-89
2023/12/01 09:37:02;;;;;;;;;60.75;47.50;;;;;5.56;68.71;99697.53;5069595;28;44787;-85
2023/12/01 09:39:29;;;;;;;;;52.75;43.00;;;;;5.53;68.64;99701.19;5073910;28;45224;-91
2023/12/01 09:41:56;;;;;;;;;60.75;42.75;;;;;5.55;68.60;99704.59;5069505;28;45398;-86
2023/12/01 09:44:21;;;;;;;;;65.00;46.25;;;;;5.55;68.91;99709.88;5065460;28;44828;-92
2023/12/01 09:46:51;;;;;;;;;54.75;44.25;;;;;5.67;68.00;99703.16;5068479;28;45497;-89
2023/12/01 09:49:18;;;;;;;;;50.00;40.75;;;;;5.73;68.23;99718.69;5066312;27;45402;-89
2023/12/01 09:51:43;;;;;;;;;48.75;41.25;;;;;5.62;67.83;99718.38;5110737;27;45251;-89
2023/12/01 09:54:08;;;;;;;;;55.50;45.50;;;;;5.49;67.74;99704.06;5106592;27;46905;-89
2023/12/01 09:56:34;;;;;;;;;58.75;45.25;;;;;5.58;67.45;99729.97;5110312;27;45290;-90
2023/12/01 09:59:00;;;;;;;;;59.00;47.50;;;;;5.51;67.49;99734.72;5112799;27;45211;-84
2023/12/01 10:01:25;;;;;;;;;54.00;41.75;;;;;5.44;68.14;99727.16;5110540;27;44783;-89
2023/12/01 10:03:52;;;;;;;;;59.50;47.00;;;;;5.42;68.29;99742.22;5106521;27;45431;-92
2023/12/01 10:06:17;;;;;;;;;55.00;39.25;;;;;5.39;68.65;99732.66;5103151;27;45437;-90
2023/12/01 10:08:43;;;;;;;;;55.25;40.25;;;;;5.40;67.69;99736.16;5104950;27;45992;-90
2023/12/01 10:11:25;;;;;;;;;50.25;40.50;;;;;5.37;68.76;99736.31;5106617;27;45360;-89
2023/12/01 10:13:51;;;;;;;;;55.50;42.25;;;;;5.48;68.60;99763.88;5102926;27;44861;-90
2023/12/01 10:16:18;;;;;;;;;45.50;37.50;;;;;5.43;68.91;99762.38;5101739;27;45532;-88
2023/12/01 10:19:01;;;;;;;;;59.50;45.50;;;;;5.37;68.56;99762.69;5099858;27;45401;-90
2023/12/01 10:21:47;;;;;;;;;59.00;48.00;;;;;5.40;68.38;99765.16;5103266;27;45286;-89
2023/12/01 10:24:17;;;;;;;;;61.75;43.50;;;;;5.33;68.64;99759.31;5098819;27;45430;-86
2023/12/01 10:26:44;;;;;;;;;61.25;45.25;;;;;5.35;68.50;99761.91;5099568;27;45429;-81
2023/12/01 10:29:30;;;;;;;;;62.50;41.75;;;;;5.48;68.53;99766.50;5099448;27;45921;-81
2023/12/01 10:32:07;;;;;;;;;62.00;42.75;;;;;5.55;68.20;99770.53;5099645;27;45386;-83
2023/12/01 10:34:33;;;;;;;;;58.75;46.25;;;;;5.66;67.65;99763.91;5093102;27;45326;-81
2023/12/01 10:37:01;;;;;;;;;51.50;31.75;;;;;5.77;67.59;99756.31;5099331;27;45530;-84
2023/12/01 10:39:27;;;;;;;;;53.50;43.50;;;;;5.87;67.33;99768.13;5101158;27;45680;-81
2023/12/01 10:42:02;;;;;;;;;59.50;44.75;;;;;5.91;67.62;99765.28;5103375;27;45373;-80
2023/12/01 10:44:28;;;;;;;;;46.25;42.50;;;;;5.93;67.06;99769.63;5108915;27;45362;-84
2023/12/01 10:46:55;;;;;;;;;53.75;41.50;;;;;5.85;66.46;99754.13;5109847;27;44939;-79
2023/12/01 10:49:22;;;;;;;;;60.25;42.00;;;;;5.88;67.03;99757.50;5103813;27;46401;-82
2023/12/01 10:51:55;;;;;;;;;49.00;43.25;;;;;5.98;66.91;99764.97;5101503;27;45389;-80
2023/12/01 10:54:24;;;;;;;;;57.00;45.50;;;;;5.96;67.05;99756.25;5102954;27;45244;-80
2023/12/01 10:57:14;;;;;;;;;59.00;45.25;;;;;6.04;66.54;99764.66;5108110;27;45302;-80
2023/12/01 10:59:45;;;;;;;;;64.25;46.00;;;;;6.00;65.90;99763.97;5087765;27;45408;-85
2023/12/01 11:02:14;;;;;;;;;64.00;45.00;;;;;5.95;66.75;99765.13;5109378;27;45198;-80
2023/12/01 11:04:45;;;;;;;;;58.25;42.50;;;;;5.85;66.07;99768.16;5109789;27;45373;-81
2023/12/01 11:07:38;;;;;;;;;54.00;43.25;;;;;5.80;65.93;99761.44;5118368;27;44761;-84
2023/12/01 11:10:43;;;;;;;;;51.75;45.25;;;;;5.65;67.30;99770.97;5118585;27;45235;-80
2023/12/01 11:13:41;;;;;;;;;59.75;39.25;;;;;5.63;66.96;99770.19;5121185;27;45430;-79
2023/12/01 11:16:08;;;;;;;;;58.75;44.00;;;;;5.52;67.44;99757.50;5121109;27;45319;-83
2023/12/01 11:18:33;;;;;;;;;55.75;43.00;;;;;5.51;66.98;99750.53;5117196;27;45338;-89
2023/12/01 11:20:59;;;;;;;;;57.25;43.25;;;;;5.47;66.79;99750.72;5114449;27;45219;-92
2023/12/01 11:23:25;;;;;;;;;59.50;41.75;;;;;5.43;67.42;99755.31;5119394;27;44730;-79
2023/12/01 11:26:10;;;;;;;;;47.00;39.25;;;;;5.38;67.94;99759.09;5119125;27;45295;-80
2023/12/01 11:31:09;;;;;;;;;45.75;38.75;;;;;5.41;67.61;99743.13;5108597;27;45894;-89